createdAt,value
2023-03-12T00:02:24.148Z,94744.34
2023-03-12T00:04:51.172Z,94755.66
2023-03-12T00:07:17.551Z,94759.72
2023-03-12T00:09:45.046Z,94755.84
2023-03-12T00:12:11.449Z,94747.41
2023-03-12T00:14:37.895Z,94758.72
2023-03-12T00:17:04.380Z,94753.13
2023-03-12T00:19:30.840Z,94749.50
2023-03-12T00:21:57.945Z,94743.16
2023-03-12T00:24:24.426Z,94754.19
2023-03-12T00:26:50.848Z,94742.28
2023-03-12T00:29:17.298Z,94747.94
2023-03-12T00:31:43.754Z,94753.41
2023-03-12T00:34:10.373Z,94751.38
2023-03-12T00:36:36.842Z,94752.41
2023-03-12T00:39:03.915Z,94761.19
2023-03-12T00:41:30.292Z,94759.09
2023-03-12T00:43:56.711Z,94746.19
2023-03-12T00:46:23.428Z,94756.44
2023-03-12T00:48:49.855Z,94744.19
2023-03-12T00:51:16.276Z,94748.28
2023-03-12T00:53:42.801Z,94755.44
2023-03-12T00:56:09.928Z,94753.34
2023-03-12T00:58:36.496Z,94757.31
2023-03-12T01:01:03.386Z,94752.28
2023-03-12T01:03:29.864Z,94750.22
2023-03-12T01:05:56.277Z,94754.28
2023-03-12T01:08:23.541Z,94746.97
2023-03-12T01:10:50.076Z,94745.19
2023-03-12T01:13:17.633Z,94756.38
2023-03-12T01:15:44.036Z,94744.59
2023-03-12T01:18:10.838Z,94752.16
2023-03-12T01:20:37.412Z,94751.22
2023-03-12T01:23:04.080Z,94751.34
2023-03-12T01:25:30.713Z,94741.78
2023-03-12T01:27:57.124Z,94761.59
2023-03-12T01:30:24.397Z,94756.03
2023-03-12T01:32:51.797Z,94761.63
2023-03-12T01:35:18.884Z,94759.72
2023-03-12T01:37:45.666Z,94763.72
2023-03-12T01:40:14.875Z,94761.19
2023-03-12T01:42:41.465Z,94762.84
2023-03-12T01:45:41.316Z,94767.22
2023-03-12T01:48:09.626Z,94768.06
2023-03-12T01:50:36.297Z,94764.78
2023-03-12T01:53:02.881Z,94765.31
2023-03-12T01:55:29.626Z,94766.69
2023-03-12T01:57:58.162Z,94756.66
2023-03-12T02:00:26.562Z,94758.88
2023-03-12T02:02:59.026Z,94758.03
2023-03-12T02:05:32.241Z,94762.72
2023-03-12T02:07:59.511Z,94763.22
2023-03-12T02:10:26.844Z,94766.69
2023-03-12T02:12:53.572Z,94763.47
2023-03-12T02:15:20.512Z,94776.09
2023-03-12T02:17:46.962Z,94776.75
2023-03-12T02:20:19.049Z,94781.38
2023-03-12T02:22:51.501Z,94785.63
2023-03-12T02:25:29.606Z,94786.66
2023-03-12T02:27:58.601Z,94789.88
2023-03-12T02:30:30.869Z,94788.22
2023-03-12T02:33:01.157Z,94785.34
2023-03-12T02:35:27.567Z,94781.53
2023-03-12T02:37:56.160Z,94784.97
2023-03-12T02:40:29.037Z,94793.75
2023-03-12T02:42:56.046Z,94788.44
2023-03-12T02:45:24.778Z,94785.13
2023-03-12T02:47:52.195Z,94789.22
2023-03-12T02:50:18.862Z,94787.22
2023-03-12T02:52:45.372Z,94780.31
2023-03-12T02:55:11.828Z,94786.06
2023-03-12T02:57:39.334Z,94796.94
2023-03-12T03:00:11.875Z,94803.56
2023-03-12T03:02:40.547Z,94796.81
2023-03-12T03:05:08.558Z,94800.41
2023-03-12T03:07:35.313Z,94797.75
2023-03-12T03:10:03.686Z,94796.34
2023-03-12T03:12:30.735Z,94794.19
2023-03-12T03:14:58.658Z,94789.91
2023-03-12T03:17:26.116Z,94796.66
2023-03-12T03:19:52.996Z,94797.78
2023-03-12T03:22:20.959Z,94802.97
2023-03-12T03:24:48.183Z,94803.34
2023-03-12T03:27:14.833Z,94790.97
2023-03-12T03:29:44.233Z,94797.78
2023-03-12T03:32:11.512Z,94800.59
2023-03-12T03:34:38.576Z,94795.19
2023-03-12T03:37:05.413Z,94796.91
2023-03-12T03:39:33.856Z,94799.09
2023-03-12T03:42:00.733Z,94807.81
2023-03-12T03:44:29.683Z,94797.00
2023-03-12T03:46:56.330Z,94793.75
2023-03-12T03:49:23.476Z,94799.44
2023-03-12T03:51:50.937Z,94798.97
2023-03-12T03:54:23.293Z,94810.81
2023-03-12T03:56:49.878Z,94812.41
2023-03-12T03:59:16.366Z,94806.41
2023-03-12T04:01:43.959Z,94814.56
2023-03-12T04:04:10.386Z,94812.25
2023-03-12T04:06:37.463Z,94810.53
2023-03-12T04:09:04.459Z,94820.00
2023-03-12T04:11:32.684Z,94823.69
2023-03-12T04:14:00.149Z,94828.66
2023-03-12T04:16:30.111Z,94831.97
2023-03-12T04:18:57.713Z,94819.63
2023-03-12T04:21:24.971Z,94827.91
2023-03-12T04:23:52.094Z,94833.66
2023-03-12T04:26:21.485Z,94831.03
2023-03-12T04:28:47.895Z,94827.28
2023-03-12T04:31:14.542Z,94827.66
2023-03-12T04:33:50.106Z,94832.91
2023-03-12T04:36:17.681Z,94826.47
2023-03-12T04:38:48.563Z,94840.56
2023-03-12T04:41:18.379Z,94834.22
2023-03-12T04:44:05.366Z,94839.66
2023-03-12T04:46:33.818Z,94825.69
2023-03-12T04:49:01.949Z,94829.31
2023-03-12T04:51:30.965Z,94826.47
2023-03-12T04:53:58.265Z,94819.34
2023-03-12T04:56:25.878Z,94813.31
2023-03-12T04:58:52.579Z,94816.19
2023-03-12T05:01:24.979Z,94810.97
2023-03-12T05:03:52.145Z,94805.31
2023-03-12T05:06:19.268Z,94814.63
2023-03-12T05:08:46.163Z,94794.28
2023-03-12T05:11:13.356Z,94795.56
2023-03-12T05:13:40.621Z,94801.28
2023-03-12T05:16:08.134Z,94806.88
2023-03-12T05:18:34.665Z,94801.63
2023-03-12T05:21:03.771Z,94801.78
2023-03-12T05:23:30.948Z,94793.53
2023-03-12T05:25:58.656Z,94790.81
2023-03-12T05:28:27.548Z,94803.75
2023-03-12T05:30:57.980Z,94797.59
2023-03-12T05:33:25.310Z,94803.81
2023-03-12T05:35:51.955Z,94801.72
2023-03-12T05:38:18.822Z,94779.25
2023-03-12T05:40:51.085Z,94805.88
2023-03-12T05:43:17.507Z,94811.38
2023-03-12T05:45:44.042Z,94815.41
2023-03-12T05:48:11.139Z,94824.28
2023-03-12T05:50:37.593Z,94818.94
2023-03-12T05:53:04.572Z,94816.72
2023-03-12T05:55:34.566Z,94816.91
2023-03-12T05:58:01.153Z,94816.75
2023-03-12T06:00:27.808Z,94832.94
2023-03-12T06:02:56.268Z,94819.28
2023-03-12T06:05:23.603Z,94824.38
2023-03-12T06:07:50.134Z,94829.78
2023-03-12T06:10:18.550Z,94821.38
2023-03-12T06:12:45.239Z,94801.63
2023-03-12T06:15:11.822Z,94800.53
2023-03-12T06:17:38.343Z,94800.84
2023-03-12T06:20:06.050Z,94801.34
2023-03-12T06:22:33.195Z,94799.91
2023-03-12T06:24:59.792Z,94791.53
2023-03-12T06:27:27.505Z,94796.78
2023-03-12T06:29:53.905Z,94791.88
2023-03-12T06:32:20.580Z,94784.63
2023-03-12T06:34:47.206Z,94795.06
2023-03-12T06:37:13.633Z,94794.94
2023-03-12T06:39:41.150Z,94806.31
2023-03-12T06:42:07.750Z,94810.91
2023-03-12T06:44:34.180Z,94810.28
2023-03-12T06:47:00.585Z,94809.47
2023-03-12T06:49:31.344Z,94812.81
2023-03-12T06:51:57.809Z,94817.06
2023-03-12T06:54:24.281Z,94820.13
2023-03-12T06:56:51.351Z,94826.44
2023-03-12T06:59:17.881Z,94822.31
2023-03-12T07:01:44.271Z,94825.19
2023-03-12T07:04:10.772Z,94820.72
2023-03-12T07:06:37.239Z,94827.72
2023-03-12T07:09:04.546Z,94826.28
2023-03-12T07:11:30.960Z,94830.09
2023-03-12T07:13:58.025Z,94820.72
2023-03-12T07:16:24.672Z,94825.66
2023-03-12T07:18:51.607Z,94826.28
2023-03-12T07:21:21.947Z,94812.03
2023-03-12T07:23:48.761Z,94813.78
2023-03-12T07:26:15.375Z,94820.72
2023-03-12T07:28:41.880Z,94816.94
2023-03-12T07:31:09.027Z,94823.06
2023-03-12T07:33:36.035Z,94816.41
2023-03-12T07:36:03.767Z,94814.19
2023-03-12T07:38:30.752Z,94821.81
2023-03-12T07:40:59.510Z,94825.06
2023-03-12T07:43:26.122Z,94819.69
2023-03-12T07:45:54.401Z,94822.69
2023-03-12T07:48:21.593Z,94826.19
2023-03-12T07:50:48.719Z,94820.47
2023-03-12T07:53:15.582Z,94818.56
2023-03-12T07:55:44.167Z,94829.47
2023-03-12T07:58:12.264Z,94820.56
2023-03-12T08:00:39.951Z,94797.00
2023-03-12T08:03:06.495Z,94823.31
2023-03-12T08:05:33.749Z,94831.09
2023-03-12T08:08:01.771Z,94834.91
2023-03-12T08:10:28.313Z,94843.34
2023-03-12T08:12:54.823Z,94830.38
2023-03-12T08:15:21.346Z,94831.00
2023-03-12T08:17:47.837Z,94832.09
2023-03-12T08:20:14.467Z,94832.41
2023-03-12T08:22:41.504Z,94834.00
2023-03-12T08:25:09.014Z,94838.72
2023-03-12T08:27:35.447Z,94832.91
2023-03-12T08:30:01.878Z,94837.63
2023-03-12T08:32:28.822Z,94831.44
2023-03-12T08:34:55.325Z,94841.91
2023-03-12T08:37:22.477Z,94847.91
2023-03-12T08:39:49.624Z,94842.81
2023-03-12T08:42:16.039Z,94835.75
2023-03-12T08:44:42.427Z,94850.19
2023-03-12T08:47:08.831Z,94855.72
2023-03-12T08:49:35.239Z,94846.84
2023-03-12T08:52:01.755Z,94850.47
2023-03-12T08:54:28.269Z,94853.03
2023-03-12T08:56:55.332Z,94850.50
2023-03-12T08:59:22.664Z,94855.09
2023-03-12T09:01:49.428Z,94850.00
2023-03-12T09:04:16.277Z,94857.41
2023-03-12T09:06:42.857Z,94854.25
2023-03-12T09:09:09.278Z,94855.63
2023-03-12T09:11:38.938Z,94861.50
2023-03-12T09:16:53.341Z,94861.31
2023-03-12T09:19:20.390Z,94861.31
2023-03-12T09:21:46.925Z,94865.47
2023-03-12T09:24:13.329Z,94876.97
2023-03-12T09:26:39.807Z,94866.97
2023-03-12T09:29:06.988Z,94875.06
2023-03-12T09:31:33.951Z,94868.38
2023-03-12T09:34:00.410Z,94879.97
2023-03-12T09:36:26.888Z,94879.03
2023-03-12T09:38:54.252Z,94885.22
2023-03-12T09:41:23.246Z,94885.69
2023-03-12T09:43:54.713Z,94885.50
2023-03-12T09:46:26.745Z,94875.38
2023-03-12T09:48:56.969Z,94873.00
2023-03-12T09:51:29.471Z,94881.56
2023-03-12T09:53:59.402Z,94879.03
2023-03-12T09:56:27.006Z,94881.38
2023-03-12T09:58:55.405Z,94873.34
2023-03-12T10:01:43.596Z,94877.16
2023-03-12T10:04:27.622Z,94881.91
2023-03-12T10:07:01.303Z,94886.34
2023-03-12T10:10:09.301Z,94873.31
2023-03-12T10:12:58.022Z,94882.66
2023-03-12T10:15:36.556Z,94867.97
2023-03-12T10:18:16.840Z,94881.09
2023-03-12T10:20:52.743Z,94874.44
2023-03-12T10:23:27.296Z,94867.00
2023-03-12T10:26:02.205Z,94877.47
2023-03-12T10:28:33.979Z,94870.66
2023-03-12T10:31:04.922Z,94865.91
2023-03-12T10:33:42.075Z,94858.13
2023-03-12T10:36:15.708Z,94852.09
2023-03-12T10:38:42.160Z,94857.63
2023-03-12T10:41:16.682Z,94862.19
2023-03-12T10:43:43.662Z,94868.22
2023-03-12T10:46:36.537Z,94866.75
2023-03-12T10:49:24.604Z,94876.56
2023-03-12T10:51:54.882Z,94871.06
2023-03-12T10:54:22.988Z,94864.56
2023-03-12T10:56:50.852Z,94866.22
2023-03-12T10:59:21.321Z,94877.41
2023-03-12T11:01:51.496Z,94880.59
2023-03-12T11:04:21.352Z,94873.53
2023-03-12T11:07:05.568Z,94873.84
2023-03-12T11:09:32.234Z,94877.16
2023-03-12T11:11:58.632Z,94885.34
2023-03-12T11:14:27.689Z,94869.69
2023-03-12T11:17:17.251Z,94874.03
2023-03-12T11:19:43.785Z,94870.41
2023-03-12T11:22:11.163Z,94867.00
2023-03-12T11:24:57.062Z,94868.66
2023-03-12T11:27:34.660Z,94861.53
2023-03-12T11:30:04.201Z,94858.88
2023-03-12T11:32:34.917Z,94867.34
2023-03-12T11:35:03.659Z,94865.97
2023-03-12T11:37:41.742Z,94859.53
2023-03-12T11:40:16.906Z,94847.16
2023-03-12T11:42:58.384Z,94846.69
2023-03-12T11:45:30.883Z,94843.75
2023-03-12T11:48:12.736Z,94839.22
2023-03-12T11:50:51.610Z,94845.19
2023-03-12T11:53:32.058Z,94842.28
2023-03-12T11:56:15.309Z,94847.03
2023-03-12T11:58:52.811Z,94838.47
2023-03-12T12:01:27.176Z,94827.38
2023-03-12T12:04:11.846Z,94840.31
2023-03-12T12:06:49.738Z,94832.69
2023-03-12T12:09:24.400Z,94830.03
2023-03-12T12:12:05.567Z,94829.56
2023-03-12T12:14:50.627Z,94821.41
2023-03-12T12:17:31.440Z,94836.69
2023-03-12T12:20:12.064Z,94828.22
2023-03-12T12:22:52.221Z,94834.16
2023-03-12T12:25:28.723Z,94823.50
2023-03-12T12:28:08.614Z,94825.13
2023-03-12T12:30:49.038Z,94820.28
2023-03-12T12:33:30.378Z,94823.66
2023-03-12T12:35:56.969Z,94825.88
2023-03-12T12:38:29.756Z,94818.03
2023-03-12T12:41:04.693Z,94804.34
2023-03-12T12:43:35.877Z,94805.19
2023-03-12T12:46:05.998Z,94808.94
2023-03-12T12:48:37.592Z,94799.59
2023-03-12T12:51:08.333Z,94803.09
2023-03-12T12:53:43.443Z,94794.41
2023-03-12T12:56:18.978Z,94802.22
2023-03-12T12:59:10.097Z,94814.13
2023-03-12T13:01:38.191Z,94802.47
2023-03-12T13:04:10.927Z,94808.91
2023-03-12T13:07:03.179Z,94797.38
2023-03-12T13:09:39.369Z,94793.91
2023-03-12T13:12:20.223Z,94791.03
2023-03-12T13:14:48.393Z,94800.97
2023-03-12T13:17:27.543Z,94810.97
2023-03-12T13:20:01.738Z,94803.72
2023-03-12T13:22:44.337Z,94803.13
2023-03-12T13:25:34.949Z,94807.16
2023-03-12T13:28:29.576Z,94804.88
2023-03-12T13:30:57.346Z,94811.56
2023-03-12T13:33:40.252Z,94812.50
2023-03-12T13:36:22.739Z,94813.94
2023-03-12T13:38:56.861Z,94818.06
2023-03-12T13:41:36.023Z,94811.81
2023-03-12T13:44:30.559Z,94816.66
2023-03-12T13:46:59.423Z,94825.19
2023-03-12T13:49:26.822Z,94823.00
2023-03-12T13:52:08.083Z,94829.88
2023-03-12T13:54:43.194Z,94836.09
2023-03-12T13:57:25.701Z,94835.72
2023-03-12T13:59:53.024Z,94838.31
2023-03-12T14:02:27.445Z,94838.91
2023-03-12T14:05:01.756Z,94828.94
2023-03-12T14:08:10.312Z,94814.91
2023-03-12T14:10:48.958Z,94827.38
2023-03-12T14:13:47.953Z,94829.97
2023-03-12T14:16:24.709Z,94837.44
2023-03-12T14:18:52.965Z,94841.81
2023-03-12T14:21:24.301Z,94843.16
2023-03-12T14:23:54.512Z,94841.81
2023-03-12T14:26:24.571Z,94848.13
2023-03-12T14:28:59.522Z,94844.38
2023-03-12T14:31:30.059Z,94836.91
2023-03-12T14:34:01.421Z,94840.63
2023-03-12T14:36:31.868Z,94844.75
2023-03-12T14:39:09.924Z,94839.03
2023-03-12T14:41:41.939Z,94841.81
2023-03-12T14:44:21.399Z,94832.97
2023-03-12T14:46:55.976Z,94829.97
2023-03-12T14:49:24.671Z,94823.69
2023-03-12T14:51:52.143Z,94829.00
2023-03-12T14:54:20.389Z,94824.44
2023-03-12T14:56:47.010Z,94818.94
2023-03-12T14:59:27.056Z,94828.22
2023-03-12T15:01:59.536Z,94830.78
2023-03-12T15:04:26.687Z,94826.44
2023-03-12T15:06:56.294Z,94840.22
2023-03-12T15:09:25.902Z,94839.25
2023-03-12T15:11:56.094Z,94842.19
2023-03-12T15:14:24.372Z,94839.22
2023-03-12T15:16:51.741Z,94832.53
2023-03-12T15:19:26.116Z,94839.63
2023-03-12T15:21:53.392Z,94838.44
2023-03-12T15:24:20.316Z,94846.09
2023-03-12T15:26:46.851Z,94849.84
2023-03-12T15:29:25.797Z,94846.69
2023-03-12T15:31:54.308Z,94851.63
2023-03-12T15:34:32.222Z,94846.31
2023-03-12T15:37:02.559Z,94852.81
2023-03-12T15:39:31.921Z,94847.28
2023-03-12T15:42:01.749Z,94845.50
2023-03-12T15:44:31.479Z,94850.63
2023-03-12T15:47:09.185Z,94840.75
2023-03-12T15:49:38.591Z,94836.03
2023-03-12T15:52:25.652Z,94844.53
2023-03-12T15:55:22.286Z,94841.78
2023-03-12T15:57:50.216Z,94841.19
2023-03-12T16:00:20.600Z,94834.47
2023-03-12T16:02:50.841Z,94852.38
2023-03-12T16:05:18.791Z,94841.53
2023-03-12T16:07:45.748Z,94834.84
2023-03-12T16:10:14.981Z,94837.59
2023-03-12T16:12:42.863Z,94832.09
2023-03-12T16:15:14.487Z,94840.16
2023-03-12T16:17:40.991Z,94836.59
2023-03-12T16:20:11.221Z,94855.91
2023-03-12T16:22:38.498Z,94858.66
2023-03-12T16:25:05.927Z,94856.91
2023-03-12T16:27:38.297Z,94858.09
2023-03-12T16:30:11.789Z,94856.28
2023-03-12T16:32:38.369Z,94855.72
2023-03-12T16:35:12.147Z,94853.13
2023-03-12T16:37:39.268Z,94848.16
2023-03-12T16:40:07.306Z,94862.16
2023-03-12T16:42:33.890Z,94854.44
2023-03-12T16:45:00.729Z,94861.75
2023-03-12T16:47:28.199Z,94864.25
2023-03-12T16:49:54.651Z,94867.38
2023-03-12T16:52:26.018Z,94868.38
2023-03-12T16:54:53.164Z,94866.97
2023-03-12T16:57:25.185Z,94871.06
2023-03-12T16:59:52.192Z,94875.09
2023-03-12T17:02:20.899Z,94880.06
2023-03-12T17:04:52.182Z,94875.44
2023-03-12T17:07:18.648Z,94868.16
2023-03-12T17:09:45.037Z,94897.78
2023-03-12T17:12:19.636Z,94885.31
2023-03-12T17:14:46.390Z,94887.19
2023-03-12T17:17:12.777Z,94892.84
2023-03-12T17:19:39.753Z,94904.81
2023-03-12T17:22:06.300Z,94894.34
2023-03-12T17:24:33.479Z,94895.06
2023-03-12T17:27:00.089Z,94889.53
2023-03-12T17:29:29.476Z,94892.34
2023-03-12T17:31:58.577Z,94897.19
2023-03-12T17:34:25.391Z,94902.13
2023-03-12T17:36:52.532Z,94897.16
2023-03-12T17:39:19.173Z,94905.28
2023-03-12T17:41:46.052Z,94901.94
2023-03-12T17:44:14.045Z,94909.53
2023-03-12T17:46:56.585Z,94900.91
2023-03-12T17:49:25.495Z,94909.50
2023-03-12T17:51:53.770Z,94898.50
2023-03-12T17:54:21.292Z,94898.50
2023-03-12T17:56:47.771Z,94902.03
2023-03-12T17:59:14.188Z,94894.00
2023-03-12T18:01:44.219Z,94913.63
2023-03-12T18:04:10.670Z,94906.16
2023-03-12T18:06:37.146Z,94906.50
2023-03-12T18:09:03.841Z,94917.25
2023-03-12T18:11:30.229Z,94915.25
2023-03-12T18:13:58.997Z,94925.63
2023-03-12T18:16:25.756Z,94920.91
2023-03-12T18:18:53.163Z,94925.81
2023-03-12T18:21:19.673Z,94926.56
2023-03-12T18:23:46.123Z,94929.28
2023-03-12T18:26:12.549Z,94922.00
2023-03-12T18:28:39.114Z,94915.13
2023-03-12T18:31:05.695Z,94919.19
2023-03-12T18:33:32.184Z,94921.66
2023-03-12T18:35:59.332Z,94910.06
2023-03-12T18:38:25.912Z,94902.19
2023-03-12T18:40:52.973Z,94903.50
2023-03-12T18:43:21.751Z,94917.22
2023-03-12T18:45:49.634Z,94910.38
2023-03-12T18:48:16.029Z,94905.97
2023-03-12T18:50:42.397Z,94909.31
2023-03-12T18:53:09.460Z,94913.81
2023-03-12T18:55:35.854Z,94918.28
2023-03-12T18:58:02.451Z,94917.25
2023-03-12T19:00:53.336Z,94917.81
2023-03-12T19:03:20.445Z,94919.19
2023-03-12T19:05:47.336Z,94918.66
2023-03-12T19:08:15.211Z,94924.31
2023-03-12T19:10:41.941Z,94926.09
2023-03-12T19:13:08.567Z,94927.59
2023-03-12T19:15:36.967Z,94928.41
2023-03-12T19:18:03.724Z,94934.28
2023-03-12T19:20:33.394Z,94941.25
2023-03-12T19:23:01.176Z,94944.13
2023-03-12T19:25:28.700Z,94953.06
2023-03-12T19:27:55.278Z,94943.03
2023-03-12T19:30:21.713Z,94953.69
2023-03-12T19:32:50.071Z,94956.09
2023-03-12T19:35:19.718Z,94959.09
2023-03-12T19:37:46.362Z,94960.28
2023-03-12T19:40:13.568Z,94959.13
2023-03-12T19:42:40.702Z,94960.72
2023-03-12T19:45:10.479Z,94957.03
2023-03-12T19:47:37.358Z,94965.13
2023-03-12T19:50:04.829Z,94962.56
2023-03-12T19:52:31.466Z,94959.91
2023-03-12T19:55:04.726Z,94956.31
2023-03-12T19:57:32.846Z,94960.00
2023-03-12T20:00:00.272Z,94965.47
2023-03-12T20:02:27.107Z,94960.97
2023-03-12T20:04:54.601Z,94970.41
2023-03-12T20:07:21.082Z,94979.31
2023-03-12T20:09:51.006Z,94976.22
2023-03-12T20:12:17.612Z,94980.91
2023-03-12T20:14:44.227Z,94975.97
2023-03-12T20:17:11.600Z,94974.91
2023-03-12T20:19:38.363Z,94977.47
2023-03-12T20:22:05.263Z,94983.28
2023-03-12T20:24:31.934Z,94981.88
2023-03-12T20:26:58.424Z,94985.84
2023-03-12T20:29:27.142Z,94986.47
2023-03-12T20:31:53.678Z,94979.16
2023-03-12T20:34:21.167Z,94970.00
2023-03-12T20:36:47.725Z,94979.84
2023-03-12T20:39:14.427Z,94979.78
2023-03-12T20:41:41.225Z,94972.75
2023-03-12T20:44:09.842Z,94971.78
2023-03-12T20:46:36.305Z,94977.72
2023-03-12T20:49:02.959Z,94962.53
2023-03-12T20:51:30.203Z,94964.38
2023-03-12T20:53:57.188Z,94963.41
2023-03-12T20:56:23.754Z,94966.13
2023-03-12T20:58:51.374Z,94972.19
2023-03-12T21:01:17.955Z,94964.88
2023-03-12T21:03:47.665Z,94964.19
2023-03-12T21:06:14.281Z,94963.66
2023-03-12T21:08:41.608Z,94974.66
2023-03-12T21:11:08.097Z,94978.00
2023-03-12T21:13:35.859Z,94968.22
2023-03-12T21:16:05.069Z,94979.66
2023-03-12T21:18:31.887Z,94974.91
2023-03-12T21:21:01.969Z,94985.22
2023-03-12T21:23:28.511Z,94980.47
2023-03-12T21:25:59.429Z,94982.22
2023-03-12T21:28:26.973Z,94976.84
2023-03-12T21:30:53.648Z,94991.19
2023-03-12T21:33:20.206Z,94985.38
2023-03-12T21:35:46.985Z,94998.38
2023-03-12T21:38:13.612Z,94997.22
2023-03-12T21:40:41.423Z,95000.66
2023-03-12T21:43:08.500Z,94999.16
2023-03-12T21:45:34.971Z,95004.91
2023-03-12T21:48:01.444Z,94996.81
2023-03-12T21:50:27.906Z,94999.09
2023-03-12T21:52:54.352Z,94994.97
2023-03-12T21:55:20.943Z,94996.38
2023-03-12T21:57:47.458Z,94995.41
2023-03-12T22:00:15.435Z,94991.00
2023-03-12T22:02:46.640Z,94983.53
2023-03-12T22:05:13.328Z,94987.41
2023-03-12T22:07:41.198Z,94988.19
2023-03-12T22:10:11.172Z,94986.09
2023-03-12T22:12:38.315Z,94967.72
2023-03-12T22:15:06.432Z,94981.94
2023-03-12T22:17:33.746Z,94984.50
2023-03-12T22:20:00.524Z,94987.56
2023-03-12T22:22:26.979Z,94989.78
2023-03-12T22:24:53.541Z,94989.69
2023-03-12T22:27:19.989Z,94987.50
2023-03-12T22:29:46.415Z,94978.81
2023-03-12T22:32:12.860Z,94986.63
2023-03-12T22:34:40.086Z,94983.91
2023-03-12T22:37:06.831Z,94979.78
2023-03-12T22:39:33.488Z,94969.22
2023-03-12T22:41:59.837Z,94972.91
2023-03-12T22:44:26.237Z,94962.97
2023-03-12T22:46:52.677Z,94962.72
2023-03-12T22:49:19.075Z,94958.06
2023-03-12T22:51:46.128Z,94953.84
2023-03-12T22:54:12.486Z,94958.06
2023-03-12T22:56:39.235Z,94953.13
2023-03-12T22:59:05.658Z,94961.38
2023-03-12T23:01:32.203Z,94953.91
2023-03-12T23:03:59.025Z,94943.81
2023-03-12T23:06:29.055Z,94951.13
2023-03-12T23:08:56.463Z,94943.03
2023-03-12T23:11:24.828Z,94937.31
2023-03-12T23:13:51.339Z,94940.50
2023-03-12T23:16:19.400Z,94935.91
2023-03-12T23:18:46.693Z,94926.88
2023-03-12T23:21:15.188Z,94904.63
2023-03-12T23:23:42.726Z,94924.38
2023-03-12T23:26:12.999Z,94923.03
2023-03-12T23:28:39.399Z,94944.88
2023-03-12T23:31:08.102Z,94940.06
2023-03-12T23:33:35.218Z,94935.72
2023-03-12T23:36:03.996Z,94934.31
2023-03-12T23:38:31.362Z,94934.09
2023-03-12T23:41:01.538Z,94937.75
2023-03-12T23:43:28.868Z,94922.25
2023-03-12T23:45:56.871Z,94926.50
2023-03-12T23:48:23.506Z,94912.28
2023-03-12T23:50:50.003Z,94909.91
2023-03-12T23:53:16.406Z,94910.00
2023-03-12T23:55:43.015Z,94897.34
2023-03-12T23:58:09.403Z,94900.84
